sensor_id;sensor_type;location;lat;lon;timestamp;P1;durP1;ratioP1;P2;durP2;ratioP2
10643;SDS011;5370;50.132;8.626;2023-11-18T00:00:26;35.87;;;22.90;;
10643;SDS011;5370;50.132;8.626;2023-11-18T00:02:52;43.63;;;23.93;;
10643;SDS011;5370;50.132;8.626;2023-11-18T00:05:18;38.93;;;22.77;;
10643;SDS011;5370;50.132;8.626;2023-11-18T00:07:43;37.60;;;23.23;;
10643;SDS011;5370;50.132;8.626;2023-11-18T00:10:09;40.83;;;22.83;;
10643;SDS011;5370;50.132;8.626;2023-11-18T00:12:35;42.43;;;22.60;;
10643;SDS011;5370;50.132;8.626;2023-11-18T00:15:04;41.83;;;24.37;;
10643;SDS011;5370;50.132;8.626;2023-11-18T00:17:31;40.37;;;23.90;;
10643;SDS011;5370;50.132;8.626;2023-11-18T00:19:57;41.00;;;24.23;;
10643;SDS011;5370;50.132;8.626;2023-11-18T00:22:22;42.93;;;26.33;;
10643;SDS011;5370;50.132;8.626;2023-11-18T00:24:48;42.70;;;24.63;;
10643;SDS011;5370;50.132;8.626;2023-11-18T00:27:13;36.00;;;23.47;;
10643;SDS011;5370;50.132;8.626;2023-11-18T00:29:40;40.00;;;23.77;;
10643;SDS011;5370;50.132;8.626;2023-11-18T00:32:06;41.07;;;23.03;;
10643;SDS011;5370;50.132;8.626;2023-11-18T00:34:32;40.07;;;23.47;;
10643;SDS011;5370;50.132;8.626;2023-11-18T00:37:00;35.70;;;23.67;;
10643;SDS011;5370;50.132;8.626;2023-11-18T00:39:26;39.37;;;22.17;;
10643;SDS011;5370;50.132;8.626;2023-11-18T00:41:52;37.00;;;22.10;;
10643;SDS011;5370;50.132;8.626;2023-11-18T00:44:17;37.97;;;21.73;;
10643;SDS011;5370;50.132;8.626;2023-11-18T00:46:44;37.50;;;21.87;;
10643;SDS011;5370;50.132;8.626;2023-11-18T00:49:10;34.57;;;22.27;;
10643;SDS011;5370;50.132;8.626;2023-11-18T00:51:38;37.30;;;21.27;;
10643;SDS011;5370;50.132;8.626;2023-11-18T00:54:04;38.73;;;21.03;;
10643;SDS011;5370;50.132;8.626;2023-11-18T00:56:31;32.07;;;19.67;;
10643;SDS011;5370;50.132;8.626;2023-11-18T00:58:56;33.93;;;19.90;;
10643;SDS011;5370;50.132;8.626;2023-11-18T01:01:22;35.47;;;19.60;;
10643;SDS011;5370;50.132;8.626;2023-11-18T01:03:48;29.67;;;19.23;;
10643;SDS011;5370;50.132;8.626;2023-11-18T01:06:13;34.50;;;19.53;;
10643;SDS011;5370;50.132;8.626;2023-11-18T01:08:45;36.40;;;19.10;;
10643;SDS011;5370;50.132;8.626;2023-11-18T01:11:17;37.03;;;21.10;;
10643;SDS011;5370;50.132;8.626;2023-11-18T01:13:47;32.73;;;20.27;;
10643;SDS011;5370;50.132;8.626;2023-11-18T01:16:15;33.00;;;19.77;;
10643;SDS011;5370;50.132;8.626;2023-11-18T01:18:42;33.20;;;20.03;;
10643;SDS011;5370;50.132;8.626;2023-11-18T01:21:08;41.87;;;20.73;;
10643;SDS011;5370;50.132;8.626;2023-11-18T01:23:34;36.73;;;20.30;;
10643;SDS011;5370;50.132;8.626;2023-11-18T01:26:00;34.23;;;20.07;;
10643;SDS011;5370;50.132;8.626;2023-11-18T01:28:30;35.50;;;20.70;;
10643;SDS011;5370;50.132;8.626;2023-11-18T01:30:57;32.87;;;19.20;;
10643;SDS011;5370;50.132;8.626;2023-11-18T01:33:24;30.80;;;19.00;;
10643;SDS011;5370;50.132;8.626;2023-11-18T01:35:50;33.03;;;19.57;;
10643;SDS011;5370;50.132;8.626;2023-11-18T01:38:15;32.23;;;19.77;;
10643;SDS011;5370;50.132;8.626;2023-11-18T01:40:41;33.17;;;20.60;;
10643;SDS011;5370;50.132;8.626;2023-11-18T01:43:08;33.60;;;21.13;;
10643;SDS011;5370;50.132;8.626;2023-11-18T01:45:37;34.87;;;22.03;;
10643;SDS011;5370;50.132;8.626;2023-11-18T01:48:02;36.23;;;22.57;;
10643;SDS011;5370;50.132;8.626;2023-11-18T01:50:29;35.77;;;21.37;;
10643;SDS011;5370;50.132;8.626;2023-11-18T01:52:54;37.83;;;22.97;;
10643;SDS011;5370;50.132;8.626;2023-11-18T01:55:20;41.87;;;24.50;;
10643;SDS011;5370;50.132;8.626;2023-11-18T01:57:46;35.83;;;21.63;;
10643;SDS011;5370;50.132;8.626;2023-11-18T02:00:12;37.83;;;23.07;;
10643;SDS011;5370;50.132;8.626;2023-11-18T02:02:38;33.13;;;21.93;;
10643;SDS011;5370;50.132;8.626;2023-11-18T02:05:04;37.17;;;23.30;;
10643;SDS011;5370;50.132;8.626;2023-11-18T02:07:31;31.80;;;21.27;;
10643;SDS011;5370;50.132;8.626;2023-11-18T02:09:58;31.13;;;20.73;;
10643;SDS011;5370;50.132;8.626;2023-11-18T02:12:31;37.03;;;21.03;;
10643;SDS011;5370;50.132;8.626;2023-11-18T02:15:18;29.50;;;20.87;;
10643;SDS011;5370;50.132;8.626;2023-11-18T02:17:45;31.87;;;21.00;;
10643;SDS011;5370;50.132;8.626;2023-11-18T02:20:13;30.90;;;20.87;;
10643;SDS011;5370;50.132;8.626;2023-11-18T02:22:41;31.77;;;19.77;;
10643;SDS011;5370;50.132;8.626;2023-11-18T02:25:09;32.90;;;20.77;;
10643;SDS011;5370;50.132;8.626;2023-11-18T02:27:36;34.63;;;20.23;;
10643;SDS011;5370;50.132;8.626;2023-11-18T02:30:02;32.20;;;20.60;;
10643;SDS011;5370;50.132;8.626;2023-11-18T02:32:39;32.13;;;21.07;;
10643;SDS011;5370;50.132;8.626;2023-11-18T02:35:28;56.63;;;20.97;;
10643;SDS011;5370;50.132;8.626;2023-11-18T02:38:02;55.03;;;21.20;;
10643;SDS011;5370;50.132;8.626;2023-11-18T02:40:34;81.70;;;24.07;;
10643;SDS011;5370;50.132;8.626;2023-11-18T02:43:02;53.70;;;19.50;;
10643;SDS011;5370;50.132;8.626;2023-11-18T02:45:30;29.97;;;17.73;;
10643;SDS011;5370;50.132;8.626;2023-11-18T02:47:57;44.97;;;19.87;;
10643;SDS011;5370;50.132;8.626;2023-11-18T02:50:25;61.30;;;19.50;;
10643;SDS011;5370;50.132;8.626;2023-11-18T02:52:52;67.03;;;19.93;;
10643;SDS011;5370;50.132;8.626;2023-11-18T02:55:20;68.70;;;21.03;;
10643;SDS011;5370;50.132;8.626;2023-11-18T02:57:47;81.47;;;21.97;;
10643;SDS011;5370;50.132;8.626;2023-11-18T03:00:14;65.03;;;20.87;;
10643;SDS011;5370;50.132;8.626;2023-11-18T03:02:46;77.97;;;22.90;;
10643;SDS011;5370;50.132;8.626;2023-11-18T03:05:16;32.87;;;14.03;;
10643;SDS011;5370;50.132;8.626;2023-11-18T03:07:46;64.80;;;18.80;;
10643;SDS011;5370;50.132;8.626;2023-11-18T03:10:15;60.87;;;17.70;;
10643;SDS011;5370;50.132;8.626;2023-11-18T03:12:52;66.33;;;18.63;;
10643;SDS011;5370;50.132;8.626;2023-11-18T03:15:18;48.33;;;17.20;;
10643;SDS011;5370;50.132;8.626;2023-11-18T03:17:48;62.77;;;20.40;;
10643;SDS011;5370;50.132;8.626;2023-11-18T03:20:15;119.83;;;22.67;;
10643;SDS011;5370;50.132;8.626;2023-11-18T03:22:48;80.93;;;21.30;;
10643;SDS011;5370;50.132;8.626;2023-11-18T03:25:15;45.07;;;16.40;;
10643;SDS011;5370;50.132;8.626;2023-11-18T03:27:41;67.17;;;18.53;;
10643;SDS011;5370;50.132;8.626;2023-11-18T03:30:07;31.70;;;16.27;;
10643;SDS011;5370;50.132;8.626;2023-11-18T03:32:34;34.63;;;15.90;;
10643;SDS011;5370;50.132;8.626;2023-11-18T03:35:02;39.40;;;14.90;;
10643;SDS011;5370;50.132;8.626;2023-11-18T03:37:29;36.70;;;16.10;;
10643;SDS011;5370;50.132;8.626;2023-11-18T03:39:54;40.13;;;16.53;;
10643;SDS011;5370;50.132;8.626;2023-11-18T03:42:20;79.87;;;19.73;;
10643;SDS011;5370;50.132;8.626;2023-11-18T03:44:47;65.87;;;19.17;;
10643;SDS011;5370;50.132;8.626;2023-11-18T03:47:15;76.33;;;20.93;;
10643;SDS011;5370;50.132;8.626;2023-11-18T03:49:41;77.63;;;19.67;;
10643;SDS011;5370;50.132;8.626;2023-11-18T03:52:06;81.57;;;20.97;;
10643;SDS011;5370;50.132;8.626;2023-11-18T03:54:32;65.20;;;17.87;;
10643;SDS011;5370;50.132;8.626;2023-11-18T03:56:58;81.80;;;17.27;;
10643;SDS011;5370;50.132;8.626;2023-11-18T03:59:24;98.03;;;20.57;;
10643;SDS011;5370;50.132;8.626;2023-11-18T04:01:50;93.07;;;22.37;;
10643;SDS011;5370;50.132;8.626;2023-11-18T04:04:16;126.50;;;22.93;;
10643;SDS011;5370;50.132;8.626;2023-11-18T04:06:42;98.50;;;20.93;;
10643;SDS011;5370;50.132;8.626;2023-11-18T04:09:08;180.87;;;24.63;;
10643;SDS011;5370;50.132;8.626;2023-11-18T04:11:35;45.63;;;17.57;;
10643;SDS011;5370;50.132;8.626;2023-11-18T04:14:00;103.70;;;21.90;;
10643;SDS011;5370;50.132;8.626;2023-11-18T04:16:28;71.10;;;18.47;;
10643;SDS011;5370;50.132;8.626;2023-11-18T04:18:53;76.40;;;21.67;;
10643;SDS011;5370;50.132;8.626;2023-11-18T04:21:19;56.50;;;19.53;;
10643;SDS011;5370;50.132;8.626;2023-11-18T04:23:45;56.17;;;19.17;;
10643;SDS011;5370;50.132;8.626;2023-11-18T04:26:11;80.23;;;20.50;;
10643;SDS011;5370;50.132;8.626;2023-11-18T04:28:37;47.37;;;19.03;;
10643;SDS011;5370;50.132;8.626;2023-11-18T04:31:03;48.67;;;20.27;;
10643;SDS011;5370;50.132;8.626;2023-11-18T04:33:30;40.13;;;19.07;;
10643;SDS011;5370;50.132;8.626;2023-11-18T04:35:55;36.80;;;19.90;;
10643;SDS011;5370;50.132;8.626;2023-11-18T04:38:22;37.30;;;18.50;;
10643;SDS011;5370;50.132;8.626;2023-11-18T04:40:48;49.80;;;20.60;;
10643;SDS011;5370;50.132;8.626;2023-11-18T04:43:14;44.30;;;21.33;;
10643;SDS011;5370;50.132;8.626;2023-11-18T04:45:40;31.93;;;18.03;;
10643;SDS011;5370;50.132;8.626;2023-11-18T04:48:08;31.27;;;17.07;;
10643;SDS011;5370;50.132;8.626;2023-11-18T04:50:34;36.80;;;18.97;;
10643;SDS011;5370;50.132;8.626;2023-11-18T04:52:59;34.27;;;19.80;;
10643;SDS011;5370;50.132;8.626;2023-11-18T04:55:25;29.80;;;17.90;;
10643;SDS011;5370;50.132;8.626;2023-11-18T04:57:54;29.17;;;18.07;;
10643;SDS011;5370;50.132;8.626;2023-11-18T05:00:19;30.37;;;18.43;;
10643;SDS011;5370;50.132;8.626;2023-11-18T05:02:46;29.63;;;18.70;;
10643;SDS011;5370;50.132;8.626;2023-11-18T05:05:13;29.80;;;19.17;;
10643;SDS011;5370;50.132;8.626;2023-11-18T05:07:39;31.20;;;19.60;;
10643;SDS011;5370;50.132;8.626;2023-11-18T05:10:05;29.40;;;18.70;;
10643;SDS011;5370;50.132;8.626;2023-11-18T05:12:33;32.07;;;19.97;;
10643;SDS011;5370;50.132;8.626;2023-11-18T05:14:59;31.40;;;19.63;;
10643;SDS011;5370;50.132;8.626;2023-11-18T05:17:25;35.10;;;19.70;;
10643;SDS011;5370;50.132;8.626;2023-11-18T05:19:52;29.17;;;16.80;;
10643;SDS011;5370;50.132;8.626;2023-11-18T05:22:18;26.17;;;18.27;;
10643;SDS011;5370;50.132;8.626;2023-11-18T05:24:45;23.10;;;16.47;;
10643;SDS011;5370;50.132;8.626;2023-11-18T05:27:11;30.90;;;17.33;;
10643;SDS011;5370;50.132;8.626;2023-11-18T05:29:36;30.83;;;18.13;;
10643;SDS011;5370;50.132;8.626;2023-11-18T05:32:02;27.07;;;17.23;;
10643;SDS011;5370;50.132;8.626;2023-11-18T05:34:28;27.47;;;16.90;;
10643;SDS011;5370;50.132;8.626;2023-11-18T05:36:54;25.17;;;15.83;;
10643;SDS011;5370;50.132;8.626;2023-11-18T05:39:20;25.57;;;15.80;;
10643;SDS011;5370;50.132;8.626;2023-11-18T05:41:49;23.67;;;17.10;;
10643;SDS011;5370;50.132;8.626;2023-11-18T05:44:16;24.97;;;17.10;;
10643;SDS011;5370;50.132;8.626;2023-11-18T05:46:46;28.57;;;17.77;;
10643;SDS011;5370;50.132;8.626;2023-11-18T05:49:12;26.33;;;16.50;;
10643;SDS011;5370;50.132;8.626;2023-11-18T05:51:38;32.20;;;18.00;;
10643;SDS011;5370;50.132;8.626;2023-11-18T05:54:07;42.17;;;18.37;;
10643;SDS011;5370;50.132;8.626;2023-11-18T05:56:33;33.97;;;18.27;;
10643;SDS011;5370;50.132;8.626;2023-11-18T05:58:59;30.67;;;17.80;;
10643;SDS011;5370;50.132;8.626;2023-11-18T06:01:28;60.57;;;20.47;;
10643;SDS011;5370;50.132;8.626;2023-11-18T06:03:54;57.03;;;19.57;;
10643;SDS011;5370;50.132;8.626;2023-11-18T06:06:21;79.40;;;21.67;;
10643;SDS011;5370;50.132;8.626;2023-11-18T06:08:47;83.10;;;22.27;;
10643;SDS011;5370;50.132;8.626;2023-11-18T06:11:13;145.43;;;23.27;;
10643;SDS011;5370;50.132;8.626;2023-11-18T06:16:21;66.97;;;20.60;;
10643;SDS011;5370;50.132;8.626;2023-11-18T06:18:49;97.50;;;22.93;;
10643;SDS011;5370;50.132;8.626;2023-11-18T06:21:20;56.93;;;20.67;;
10643;SDS011;5370;50.132;8.626;2023-11-18T06:23:49;60.90;;;20.57;;
10643;SDS011;5370;50.132;8.626;2023-11-18T06:26:16;53.10;;;19.97;;
10643;SDS011;5370;50.132;8.626;2023-11-18T06:28:42;74.83;;;20.70;;
10643;SDS011;5370;50.132;8.626;2023-11-18T06:31:09;110.20;;;22.53;;
10643;SDS011;5370;50.132;8.626;2023-11-18T06:33:37;71.60;;;21.30;;
10643;SDS011;5370;50.132;8.626;2023-11-18T06:36:05;66.97;;;21.27;;
10643;SDS011;5370;50.132;8.626;2023-11-18T06:38:31;74.53;;;21.00;;
10643;SDS011;5370;50.132;8.626;2023-11-18T06:40:56;80.93;;;22.03;;
10643;SDS011;5370;50.132;8.626;2023-11-18T06:43:24;60.43;;;19.93;;
10643;SDS011;5370;50.132;8.626;2023-11-18T06:45:50;64.93;;;20.30;;
10643;SDS011;5370;50.132;8.626;2023-11-18T06:48:16;45.67;;;18.80;;
10643;SDS011;5370;50.132;8.626;2023-11-18T06:50:45;61.37;;;19.20;;
10643;SDS011;5370;50.132;8.626;2023-11-18T06:53:11;47.90;;;19.77;;
10643;SDS011;5370;50.132;8.626;2023-11-18T06:55:37;45.00;;;21.03;;
10643;SDS011;5370;50.132;8.626;2023-11-18T06:58:02;39.33;;;18.67;;
10643;SDS011;5370;50.132;8.626;2023-11-18T07:00:28;38.80;;;18.10;;
10643;SDS011;5370;50.132;8.626;2023-11-18T07:02:54;42.23;;;19.30;;
10643;SDS011;5370;50.132;8.626;2023-11-18T07:05:20;46.40;;;19.67;;
10643;SDS011;5370;50.132;8.626;2023-11-18T07:07:49;62.33;;;28.10;;
10643;SDS011;5370;50.132;8.626;2023-11-18T07:10:15;50.80;;;23.13;;
10643;SDS011;5370;50.132;8.626;2023-11-18T07:12:45;45.10;;;19.50;;
10643;SDS011;5370;50.132;8.626;2023-11-18T07:15:12;41.00;;;19.57;;
10643;SDS011;5370;50.132;8.626;2023-11-18T07:17:38;36.70;;;19.37;;
10643;SDS011;5370;50.132;8.626;2023-11-18T07:20:04;33.23;;;17.47;;
10643;SDS011;5370;50.132;8.626;2023-11-18T07:22:31;29.77;;;17.27;;
10643;SDS011;5370;50.132;8.626;2023-11-18T07:24:56;33.07;;;16.60;;
10643;SDS011;5370;50.132;8.626;2023-11-18T07:27:22;33.90;;;17.20;;
10643;SDS011;5370;50.132;8.626;2023-11-18T07:29:48;32.87;;;17.20;;
10643;SDS011;5370;50.132;8.626;2023-11-18T07:32:13;60.50;;;32.77;;
10643;SDS011;5370;50.132;8.626;2023-11-18T07:34:39;303.13;;;192.73;;
10643;SDS011;5370;50.132;8.626;2023-11-18T07:37:06;90.80;;;51.90;;
10643;SDS011;5370;50.132;8.626;2023-11-18T07:39:33;41.60;;;24.23;;
10643;SDS011;5370;50.132;8.626;2023-11-18T07:42:13;37.90;;;19.73;;
10643;SDS011;5370;50.132;8.626;2023-11-18T07:44:40;30.33;;;16.77;;
10643;SDS011;5370;50.132;8.626;2023-11-18T07:47:06;33.10;;;16.30;;
10643;SDS011;5370;50.132;8.626;2023-11-18T07:49:35;110.10;;;62.37;;
10643;SDS011;5370;50.132;8.626;2023-11-18T07:52:01;37.03;;;18.87;;
10643;SDS011;5370;50.132;8.626;2023-11-18T07:54:27;25.83;;;15.73;;
10643;SDS011;5370;50.132;8.626;2023-11-18T07:56:53;28.90;;;15.80;;
10643;SDS011;5370;50.132;8.626;2023-11-18T07:59:19;124.87;;;71.63;;
10643;SDS011;5370;50.132;8.626;2023-11-18T08:01:45;125.17;;;71.30;;
10643;SDS011;5370;50.132;8.626;2023-11-18T08:04:11;29.87;;;15.20;;
10643;SDS011;5370;50.132;8.626;2023-11-18T08:06:40;25.90;;;14.83;;
10643;SDS011;5370;50.132;8.626;2023-11-18T08:09:08;178.17;;;114.40;;
10643;SDS011;5370;50.132;8.626;2023-11-18T08:11:39;202.97;;;123.40;;
10643;SDS011;5370;50.132;8.626;2023-11-18T08:14:09;131.30;;;79.30;;
10643;SDS011;5370;50.132;8.626;2023-11-18T08:16:35;53.93;;;30.70;;
10643;SDS011;5370;50.132;8.626;2023-11-18T08:19:01;92.67;;;54.90;;
10643;SDS011;5370;50.132;8.626;2023-11-18T08:21:33;42.30;;;23.13;;
10643;SDS011;5370;50.132;8.626;2023-11-18T08:24:03;32.93;;;17.63;;
10643;SDS011;5370;50.132;8.626;2023-11-18T08:26:30;28.60;;;15.30;;
10643;SDS011;5370;50.132;8.626;2023-11-18T08:28:56;30.20;;;16.17;;
10643;SDS011;5370;50.132;8.626;2023-11-18T08:31:21;29.37;;;15.67;;
10643;SDS011;5370;50.132;8.626;2023-11-18T08:33:47;33.27;;;16.47;;
10643;SDS011;5370;50.132;8.626;2023-11-18T08:36:12;33.13;;;15.30;;
10643;SDS011;5370;50.132;8.626;2023-11-18T08:38:38;34.70;;;16.77;;
10643;SDS011;5370;50.132;8.626;2023-11-18T08:41:05;31.47;;;15.37;;
10643;SDS011;5370;50.132;8.626;2023-11-18T08:43:33;39.67;;;17.60;;
10643;SDS011;5370;50.132;8.626;2023-11-18T08:46:00;33.77;;;17.33;;
10643;SDS011;5370;50.132;8.626;2023-11-18T08:48:26;34.17;;;16.53;;
10643;SDS011;5370;50.132;8.626;2023-11-18T08:50:53;33.50;;;16.37;;
10643;SDS011;5370;50.132;8.626;2023-11-18T08:53:18;32.37;;;16.03;;
10643;SDS011;5370;50.132;8.626;2023-11-18T08:55:50;39.97;;;17.80;;
10643;SDS011;5370;50.132;8.626;2023-11-18T08:58:18;39.40;;;18.13;;
10643;SDS011;5370;50.132;8.626;2023-11-18T09:00:45;62.20;;;32.37;;
10643;SDS011;5370;50.132;8.626;2023-11-18T09:03:18;135.27;;;72.87;;
10643;SDS011;5370;50.132;8.626;2023-11-18T09:05:59;152.43;;;75.63;;
10643;SDS011;5370;50.132;8.626;2023-11-18T09:08:37;217.27;;;117.57;;
10643;SDS011;5370;50.132;8.626;2023-11-18T09:11:12;185.43;;;98.37;;
10643;SDS011;5370;50.132;8.626;2023-11-18T09:13:45;144.33;;;80.37;;
10643;SDS011;5370;50.132;8.626;2023-11-18T09:16:14;48.30;;;21.60;;
10643;SDS011;5370;50.132;8.626;2023-11-18T09:18:41;39.33;;;19.23;;
10643;SDS011;5370;50.132;8.626;2023-11-18T09:21:09;39.63;;;20.03;;
10643;SDS011;5370;50.132;8.626;2023-11-18T09:23:48;39.47;;;19.80;;
10643;SDS011;5370;50.132;8.626;2023-11-18T09:26:14;35.40;;;18.13;;
10643;SDS011;5370;50.132;8.626;2023-11-18T09:28:41;38.27;;;20.20;;
10643;SDS011;5370;50.132;8.626;2023-11-18T09:31:07;42.83;;;20.20;;
10643;SDS011;5370;50.132;8.626;2023-11-18T09:33:37;44.60;;;18.93;;
10643;SDS011;5370;50.132;8.626;2023-11-18T09:36:05;40.80;;;18.37;;
10643;SDS011;5370;50.132;8.626;2023-11-18T09:38:33;40.33;;;19.00;;
10643;SDS011;5370;50.132;8.626;2023-11-18T09:41:05;41.83;;;18.40;;
10643;SDS011;5370;50.132;8.626;2023-11-18T09:43:36;45.03;;;20.80;;
10643;SDS011;5370;50.132;8.626;2023-11-18T09:46:10;47.27;;;20.30;;
10643;SDS011;5370;50.132;8.626;2023-11-18T09:48:44;44.63;;;20.87;;
10643;SDS011;5370;50.132;8.626;2023-11-18T09:51:28;46.00;;;19.33;;
10643;SDS011;5370;50.132;8.626;2023-11-18T09:54:01;50.40;;;21.67;;
10643;SDS011;5370;50.132;8.626;2023-11-18T09:56:31;47.23;;;20.93;;
10643;SDS011;5370;50.132;8.626;2023-11-18T09:59:32;47.83;;;20.53;;
10643;SDS011;5370;50.132;8.626;2023-11-18T10:02:00;40.50;;;20.17;;
10643;SDS011;5370;50.132;8.626;2023-11-18T10:04:31;46.20;;;21.53;;
10643;SDS011;5370;50.132;8.626;2023-11-18T10:06:58;45.23;;;22.53;;
10643;SDS011;5370;50.132;8.626;2023-11-18T10:09:27;49.90;;;22.03;;
10643;SDS011;5370;50.132;8.626;2023-11-18T10:11:53;45.10;;;21.07;;
10643;SDS011;5370;50.132;8.626;2023-11-18T10:14:26;48.60;;;21.47;;
10643;SDS011;5370;50.132;8.626;2023-11-18T10:16:52;65.30;;;21.60;;
10643;SDS011;5370;50.132;8.626;2023-11-18T10:19:19;52.50;;;22.60;;
10643;SDS011;5370;50.132;8.626;2023-11-18T10:21:44;50.70;;;22.53;;
10643;SDS011;5370;50.132;8.626;2023-11-18T10:24:14;49.17;;;22.47;;
10643;SDS011;5370;50.132;8.626;2023-11-18T10:26:43;52.73;;;23.87;;
10643;SDS011;5370;50.132;8.626;2023-11-18T10:29:10;42.07;;;20.83;;
10643;SDS011;5370;50.132;8.626;2023-11-18T10:31:38;47.63;;;21.53;;
10643;SDS011;5370;50.132;8.626;2023-11-18T10:34:13;45.67;;;22.60;;
10643;SDS011;5370;50.132;8.626;2023-11-18T10:36:41;47.43;;;23.20;;
10643;SDS011;5370;50.132;8.626;2023-11-18T10:39:10;46.67;;;21.00;;
10643;SDS011;5370;50.132;8.626;2023-11-18T10:41:41;49.97;;;22.83;;
10643;SDS011;5370;50.132;8.626;2023-11-18T10:44:08;53.90;;;23.37;;
10643;SDS011;5370;50.132;8.626;2023-11-18T10:46:52;47.50;;;21.50;;
10643;SDS011;5370;50.132;8.626;2023-11-18T10:49:20;43.50;;;20.40;;
10643;SDS011;5370;50.132;8.626;2023-11-18T10:51:46;51.00;;;23.23;;
10643;SDS011;5370;50.132;8.626;2023-11-18T10:54:12;49.03;;;23.40;;
10643;SDS011;5370;50.132;8.626;2023-11-18T10:56:50;52.30;;;22.73;;
10643;SDS011;5370;50.132;8.626;2023-11-18T10:59:21;45.67;;;23.43;;
10643;SDS011;5370;50.132;8.626;2023-11-18T11:01:48;47.47;;;22.60;;
10643;SDS011;5370;50.132;8.626;2023-11-18T11:04:14;51.93;;;22.63;;
10643;SDS011;5370;50.132;8.626;2023-11-18T11:06:46;40.43;;;21.93;;
10643;SDS011;5370;50.132;8.626;2023-11-18T11:09:22;46.57;;;21.70;;
10643;SDS011;5370;50.132;8.626;2023-11-18T11:11:56;38.83;;;22.00;;
10643;SDS011;5370;50.132;8.626;2023-11-18T11:14:31;42.33;;;22.60;;
10643;SDS011;5370;50.132;8.626;2023-11-18T11:17:06;46.67;;;23.07;;
10643;SDS011;5370;50.132;8.626;2023-11-18T11:20:04;41.40;;;22.57;;
10643;SDS011;5370;50.132;8.626;2023-11-18T11:23:01;43.97;;;22.07;;
10643;SDS011;5370;50.132;8.626;2023-11-18T11:25:35;44.27;;;23.10;;
10643;SDS011;5370;50.132;8.626;2023-11-18T11:28:10;48.30;;;22.33;;
10643;SDS011;5370;50.132;8.626;2023-11-18T11:30:44;54.50;;;24.37;;
10643;SDS011;5370;50.132;8.626;2023-11-18T11:36:17;48.17;;;23.40;;
10643;SDS011;5370;50.132;8.626;2023-11-18T11:38:52;43.10;;;22.33;;
10643;SDS011;5370;50.132;8.626;2023-11-18T11:41:21;45.20;;;22.90;;
10643;SDS011;5370;50.132;8.626;2023-11-18T11:43:51;40.63;;;22.93;;
10643;SDS011;5370;50.132;8.626;2023-11-18T11:46:20;42.43;;;22.43;;
10643;SDS011;5370;50.132;8.626;2023-11-18T11:48:48;43.87;;;21.37;;
10643;SDS011;5370;50.132;8.626;2023-11-18T11:54:08;45.53;;;22.13;;
10643;SDS011;5370;50.132;8.626;2023-11-18T11:56:45;35.80;;;21.13;;
10643;SDS011;5370;50.132;8.626;2023-11-18T11:59:12;39.03;;;21.60;;
10643;SDS011;5370;50.132;8.626;2023-11-18T12:01:40;38.93;;;20.47;;
10643;SDS011;5370;50.132;8.626;2023-11-18T12:04:11;45.87;;;21.73;;
10643;SDS011;5370;50.132;8.626;2023-11-18T12:06:46;38.80;;;21.23;;
10643;SDS011;5370;50.132;8.626;2023-11-18T12:09:13;44.93;;;23.47;;
10643;SDS011;5370;50.132;8.626;2023-11-18T12:11:47;54.93;;;25.40;;
10643;SDS011;5370;50.132;8.626;2023-11-18T12:14:16;53.33;;;24.83;;
10643;SDS011;5370;50.132;8.626;2023-11-18T12:17:04;51.70;;;23.60;;
10643;SDS011;5370;50.132;8.626;2023-11-18T12:19:46;42.43;;;22.10;;
10643;SDS011;5370;50.132;8.626;2023-11-18T12:22:16;43.20;;;23.40;;
10643;SDS011;5370;50.132;8.626;2023-11-18T12:25:38;38.23;;;22.60;;
10643;SDS011;5370;50.132;8.626;2023-11-18T12:27:57;30.80;;;18.13;;
10643;SDS011;5370;50.132;8.626;2023-11-18T12:33:00;29.00;;;18.10;;
10643;SDS011;5370;50.132;8.626;2023-11-18T12:41:34;22.63;;;14.93;;
10643;SDS011;5370;50.132;8.626;2023-11-18T12:49:43;16.20;;;13.50;;
10643;SDS011;5370;50.132;8.626;2023-11-18T12:52:10;18.63;;;13.50;;
10643;SDS011;5370;50.132;8.626;2023-11-18T12:54:40;22.07;;;14.80;;
10643;SDS011;5370;50.132;8.626;2023-11-18T12:57:09;25.13;;;13.77;;
10643;SDS011;5370;50.132;8.626;2023-11-18T12:59:38;17.63;;;12.63;;
10643;SDS011;5370;50.132;8.626;2023-11-18T13:02:08;19.80;;;12.87;;
10643;SDS011;5370;50.132;8.626;2023-11-18T13:04:39;16.63;;;12.57;;
10643;SDS011;5370;50.132;8.626;2023-11-18T13:07:05;20.40;;;13.40;;
10643;SDS011;5370;50.132;8.626;2023-11-18T13:09:33;17.47;;;13.60;;
10643;SDS011;5370;50.132;8.626;2023-11-18T13:12:01;18.50;;;13.10;;
10643;SDS011;5370;50.132;8.626;2023-11-18T13:14:30;15.27;;;11.83;;
10643;SDS011;5370;50.132;8.626;2023-11-18T13:17:13;15.67;;;11.77;;
10643;SDS011;5370;50.132;8.626;2023-11-18T13:19:43;15.07;;;12.27;;
10643;SDS011;5370;50.132;8.626;2023-11-18T13:22:10;16.20;;;12.53;;
10643;SDS011;5370;50.132;8.626;2023-11-18T13:24:39;15.20;;;11.17;;
10643;SDS011;5370;50.132;8.626;2023-11-18T13:27:09;19.00;;;11.53;;
10643;SDS011;5370;50.132;8.626;2023-11-18T13:29:36;13.97;;;11.07;;
10643;SDS011;5370;50.132;8.626;2023-11-18T13:32:06;15.27;;;11.47;;
10643;SDS011;5370;50.132;8.626;2023-11-18T13:34:32;12.93;;;10.07;;
10643;SDS011;5370;50.132;8.626;2023-11-18T13:37:01;17.17;;;11.37;;
10643;SDS011;5370;50.132;8.626;2023-11-18T13:39:28;12.63;;;10.20;;
10643;SDS011;5370;50.132;8.626;2023-11-18T13:41:53;15.10;;;9.57;;
10643;SDS011;5370;50.132;8.626;2023-11-18T13:44:32;14.20;;;10.90;;
10643;SDS011;5370;50.132;8.626;2023-11-18T13:47:03;14.47;;;10.40;;
10643;SDS011;5370;50.132;8.626;2023-11-18T13:49:30;14.80;;;10.77;;
10643;SDS011;5370;50.132;8.626;2023-11-18T13:52:02;14.17;;;10.43;;
10643;SDS011;5370;50.132;8.626;2023-11-18T13:54:28;10.70;;;9.40;;
10643;SDS011;5370;50.132;8.626;2023-11-18T13:56:54;11.40;;;9.00;;
10643;SDS011;5370;50.132;8.626;2023-11-18T13:59:23;10.67;;;8.60;;
10643;SDS011;5370;50.132;8.626;2023-11-18T14:01:51;15.80;;;10.53;;
10643;SDS011;5370;50.132;8.626;2023-11-18T14:04:19;10.53;;;8.30;;
10643;SDS011;5370;50.132;8.626;2023-11-18T14:06:51;12.20;;;9.53;;
10643;SDS011;5370;50.132;8.626;2023-11-18T14:09:18;12.73;;;9.10;;
10643;SDS011;5370;50.132;8.626;2023-11-18T14:11:46;13.87;;;10.00;;
10643;SDS011;5370;50.132;8.626;2023-11-18T14:14:13;12.30;;;8.60;;
10643;SDS011;5370;50.132;8.626;2023-11-18T14:16:39;12.97;;;8.87;;
10643;SDS011;5370;50.132;8.626;2023-11-18T14:19:05;11.17;;;8.10;;
10643;SDS011;5370;50.132;8.626;2023-11-18T14:21:31;10.87;;;7.27;;
10643;SDS011;5370;50.132;8.626;2023-11-18T14:23:57;9.23;;;7.10;;
10643;SDS011;5370;50.132;8.626;2023-11-18T14:26:27;10.17;;;7.47;;
10643;SDS011;5370;50.132;8.626;2023-11-18T14:28:52;12.50;;;8.60;;
10643;SDS011;5370;50.132;8.626;2023-11-18T14:31:18;15.87;;;9.40;;
10643;SDS011;5370;50.132;8.626;2023-11-18T14:33:43;9.53;;;8.33;;
10643;SDS011;5370;50.132;8.626;2023-11-18T14:36:09;10.83;;;7.17;;
10643;SDS011;5370;50.132;8.626;2023-11-18T14:38:36;11.63;;;7.70;;
10643;SDS011;5370;50.132;8.626;2023-11-18T14:41:02;9.50;;;7.00;;
10643;SDS011;5370;50.132;8.626;2023-11-18T14:43:29;13.00;;;8.23;;
10643;SDS011;5370;50.132;8.626;2023-11-18T14:45:55;9.63;;;7.53;;
10643;SDS011;5370;50.132;8.626;2023-11-18T14:48:20;12.53;;;7.67;;
10643;SDS011;5370;50.132;8.626;2023-11-18T14:50:46;8.77;;;7.40;;
10643;SDS011;5370;50.132;8.626;2023-11-18T14:53:12;12.77;;;7.93;;
10643;SDS011;5370;50.132;8.626;2023-11-18T14:55:38;12.97;;;8.87;;
10643;SDS011;5370;50.132;8.626;2023-11-18T14:58:04;15.63;;;10.53;;
10643;SDS011;5370;50.132;8.626;2023-11-18T15:00:31;16.60;;;10.40;;
10643;SDS011;5370;50.132;8.626;2023-11-18T15:02:58;19.23;;;10.23;;
10643;SDS011;5370;50.132;8.626;2023-11-18T15:05:24;12.53;;;10.00;;